sensor_id;sensor_type;location;lat;lon;timestamp;pressure;altitude;pressure_sealevel;temperature;humidity
7474;BME280;3778;42.572;23.426;2023-01-30T00:01:14;95899.97;;;-146.70;76.68
7474;BME280;3778;42.572;23.426;2023-01-30T00:03:41;95812.44;;;-146.70;76.90
7474;BME280;3778;42.572;23.426;2023-01-30T00:06:07;95879.13;;;-146.70;76.45
7474;BME280;3778;42.572;23.426;2023-01-30T00:08:34;95887.47;;;-146.70;76.47
7474;BME280;3778;42.572;23.426;2023-01-30T00:11:04;95954.19;;;-146.70;76.24
7474;BME280;3778;42.572;23.426;2023-01-30T00:13:31;95885.38;;;-146.70;76.29
7474;BME280;3778;42.572;23.426;2023-01-30T00:15:58;95854.13;;;-146.70;75.92
7474;BME280;3778;42.572;23.426;2023-01-30T00:18:25;95885.38;;;-146.70;76.09
7474;BME280;3778;42.572;23.426;2023-01-30T00:20:55;95885.38;;;-146.70;76.01
7474;BME280;3778;42.572;23.426;2023-01-30T00:23:21;95862.47;;;-146.70;75.95
7474;BME280;3778;42.572;23.426;2023-01-30T00:25:48;95841.59;;;-146.70;76.06
7474;BME280;3778;42.572;23.426;2023-01-30T00:28:16;95874.97;;;-146.70;75.71
7474;BME280;3778;42.572;23.426;2023-01-30T00:30:43;95887.47;;;-146.70;76.39
7474;BME280;3778;42.572;23.426;2023-01-30T00:33:10;95874.97;;;-146.70;76.68
7474;BME280;3778;42.572;23.426;2023-01-30T00:35:37;95887.47;;;-146.70;76.25
7474;BME280;3778;42.572;23.426;2023-01-30T00:38:03;95872.88;;;-146.70;76.67
7474;BME280;3778;42.572;23.426;2023-01-30T00:40:30;95885.38;;;-146.70;76.47
7474;BME280;3778;42.572;23.426;2023-01-30T00:42:57;95858.28;;;-146.70;76.93
7474;BME280;3778;42.572;23.426;2023-01-30T00:45:43;95925.00;;;-146.70;76.96
7474;BME280;3778;42.572;23.426;2023-01-30T00:48:28;95870.78;;;-146.70;76.99
7474;BME280;3778;42.572;23.426;2023-01-30T00:50:54;95874.97;;;-146.70;76.73
7474;BME280;3778;42.572;23.426;2023-01-30T00:53:21;95893.72;;;-146.70;77.17
7474;BME280;3778;42.572;23.426;2023-01-30T00:55:50;95891.63;;;-146.70;77.27
7474;BME280;3778;42.572;23.426;2023-01-30T00:58:16;95833.28;;;-146.70;77.19
7474;BME280;3778;42.572;23.426;2023-01-30T01:00:45;95931.25;;;-146.70;77.60
7474;BME280;3778;42.572;23.426;2023-01-30T01:03:12;95920.81;;;-146.70;77.56
7474;BME280;3778;42.572;23.426;2023-01-30T01:05:39;95877.03;;;-146.70;77.69
7474;BME280;3778;42.572;23.426;2023-01-30T01:08:06;95941.66;;;-146.70;77.64
7474;BME280;3778;42.572;23.426;2023-01-30T01:10:32;95904.16;;;-146.70;77.56
7474;BME280;3778;42.572;23.426;2023-01-30T01:12:59;95862.47;;;-146.70;77.51
7474;BME280;3778;42.572;23.426;2023-01-30T01:15:26;95891.63;;;-146.70;77.68
7474;BME280;3778;42.572;23.426;2023-01-30T01:17:55;95893.72;;;-146.70;77.97
7474;BME280;3778;42.572;23.426;2023-01-30T01:20:22;95920.81;;;-146.70;77.90
7474;BME280;3778;42.572;23.426;2023-01-30T01:22:51;95874.97;;;-146.70;78.12
7474;BME280;3778;42.572;23.426;2023-01-30T01:25:19;95925.00;;;-146.70;78.43
7474;BME280;3778;42.572;23.426;2023-01-30T01:27:46;95858.28;;;-146.70;78.07
7474;BME280;3778;42.572;23.426;2023-01-30T01:30:13;95864.53;;;-146.70;78.50
7474;BME280;3778;42.572;23.426;2023-01-30T01:32:40;95929.16;;;-146.70;78.20
7474;BME280;3778;42.572;23.426;2023-01-30T01:35:09;95862.47;;;-146.70;78.30
7474;BME280;3778;42.572;23.426;2023-01-30T01:37:35;95908.31;;;-146.70;78.39
7474;BME280;3778;42.572;23.426;2023-01-30T01:40:03;95883.31;;;-146.70;78.17
7474;BME280;3778;42.572;23.426;2023-01-30T01:42:55;95910.41;;;-146.70;78.02
7474;BME280;3778;42.572;23.426;2023-01-30T01:45:22;95927.06;;;-146.70;78.04
7474;BME280;3778;42.572;23.426;2023-01-30T01:47:58;95862.47;;;-146.70;78.05
7474;BME280;3778;42.572;23.426;2023-01-30T01:50:30;95908.31;;;-146.70;77.84
7474;BME280;3778;42.572;23.426;2023-01-30T01:53:03;95870.78;;;-146.70;78.10
7474;BME280;3778;42.572;23.426;2023-01-30T01:55:30;95889.56;;;-146.70;78.00
7474;BME280;3778;42.572;23.426;2023-01-30T01:58:00;95956.25;;;-146.70;78.15
7474;BME280;3778;42.572;23.426;2023-01-30T02:00:29;95872.88;;;-146.70;78.12
7474;BME280;3778;42.572;23.426;2023-01-30T02:02:59;95920.81;;;-146.70;78.15
7474;BME280;3778;42.572;23.426;2023-01-30T02:05:33;95950.00;;;-146.70;78.21
7474;BME280;3778;42.572;23.426;2023-01-30T02:08:03;95945.84;;;-146.70;77.96
7474;BME280;3778;42.572;23.426;2023-01-30T02:10:38;95866.63;;;-146.70;77.73
7474;BME280;3778;42.572;23.426;2023-01-30T02:13:06;95864.53;;;-146.70;77.82
7474;BME280;3778;42.572;23.426;2023-01-30T02:15:34;95829.09;;;-146.70;77.90
7474;BME280;3778;42.572;23.426;2023-01-30T02:18:01;95943.75;;;-146.70;78.04
7474;BME280;3778;42.572;23.426;2023-01-30T02:20:42;95914.56;;;-146.70;77.92
7474;BME280;3778;42.572;23.426;2023-01-30T02:23:55;95891.63;;;-146.70;78.06
7474;BME280;3778;42.572;23.426;2023-01-30T02:29:38;95872.88;;;-146.70;78.01
7474;BME280;3778;42.572;23.426;2023-01-30T02:32:17;95931.25;;;-146.70;78.11
7474;BME280;3778;42.572;23.426;2023-01-30T02:34:58;95977.09;;;-146.70;78.17
7474;BME280;3778;42.572;23.426;2023-01-30T02:37:42;95906.22;;;-146.70;78.12
7474;BME280;3778;42.572;23.426;2023-01-30T02:40:28;95906.22;;;-146.70;77.76
7474;BME280;3778;42.572;23.426;2023-01-30T02:43:03;95849.94;;;-146.70;78.15
7474;BME280;3778;42.572;23.426;2023-01-30T02:45:35;95970.84;;;-146.70;78.35
7474;BME280;3778;42.572;23.426;2023-01-30T02:48:10;95981.28;;;-146.70;78.10
7474;BME280;3778;42.572;23.426;2023-01-30T02:50:42;95925.00;;;-146.70;78.30
7474;BME280;3778;42.572;23.426;2023-01-30T02:53:11;95862.47;;;-146.70;78.07
7474;BME280;3778;42.572;23.426;2023-01-30T02:55:39;95933.34;;;-146.70;77.98
7474;BME280;3778;42.572;23.426;2023-01-30T02:58:06;95933.34;;;-146.70;78.08
7474;BME280;3778;42.572;23.426;2023-01-30T03:00:52;95887.47;;;-146.70;77.79
7474;BME280;3778;42.572;23.426;2023-01-30T03:03:34;95845.78;;;-146.70;78.02
7474;BME280;3778;42.572;23.426;2023-01-30T03:06:15;95939.59;;;-146.70;78.07
7474;BME280;3778;42.572;23.426;2023-01-30T03:08:54;95866.63;;;-146.70;77.99
7474;BME280;3778;42.572;23.426;2023-01-30T03:11:29;95889.56;;;-146.70;77.15
7474;BME280;3778;42.572;23.426;2023-01-30T03:14:05;95908.31;;;-146.70;76.83
7474;BME280;3778;42.572;23.426;2023-01-30T03:16:37;95895.81;;;-146.70;77.35
7474;BME280;3778;42.572;23.426;2023-01-30T03:19:10;95931.25;;;-146.70;76.84
7474;BME280;3778;42.572;23.426;2023-01-30T03:21:39;95910.41;;;-146.70;76.65
7474;BME280;3778;42.572;23.426;2023-01-30T03:24:06;95889.56;;;-146.70;76.05
7474;BME280;3778;42.572;23.426;2023-01-30T03:26:36;95839.53;;;-146.70;76.23
7474;BME280;3778;42.572;23.426;2023-01-30T03:29:04;95922.91;;;-146.70;76.43
7474;BME280;3778;42.572;23.426;2023-01-30T03:31:31;95916.66;;;-146.70;76.24
7474;BME280;3778;42.572;23.426;2023-01-30T03:33:58;95897.91;;;-146.70;76.02
7474;BME280;3778;42.572;23.426;2023-01-30T03:36:26;95910.41;;;-146.70;76.37
7474;BME280;3778;42.572;23.426;2023-01-30T03:38:53;95908.31;;;-146.70;76.33
7474;BME280;3778;42.572;23.426;2023-01-30T03:41:19;95902.06;;;-146.70;76.24
7474;BME280;3778;42.572;23.426;2023-01-30T03:43:46;95952.09;;;-146.70;75.65
7474;BME280;3778;42.572;23.426;2023-01-30T03:46:13;95941.66;;;-146.70;75.91
7474;BME280;3778;42.572;23.426;2023-01-30T03:48:39;95872.88;;;-146.70;76.16
7474;BME280;3778;42.572;23.426;2023-01-30T03:51:06;95889.56;;;-146.70;76.36
7474;BME280;3778;42.572;23.426;2023-01-30T03:53:34;95883.31;;;-146.70;76.63
7474;BME280;3778;42.572;23.426;2023-01-30T03:56:01;95914.56;;;-146.70;76.19
7474;BME280;3778;42.572;23.426;2023-01-30T03:58:28;95883.31;;;-146.70;76.19
7474;BME280;3778;42.572;23.426;2023-01-30T04:00:55;95902.06;;;-146.70;76.06
7474;BME280;3778;42.572;23.426;2023-01-30T04:03:22;95920.81;;;-146.70;76.40
7474;BME280;3778;42.572;23.426;2023-01-30T04:05:48;95879.13;;;-146.70;76.04
7474;BME280;3778;42.572;23.426;2023-01-30T04:08:15;95918.75;;;-146.70;76.43
7474;BME280;3778;42.572;23.426;2023-01-30T04:10:43;95937.50;;;-146.70;76.35
7474;BME280;3778;42.572;23.426;2023-01-30T04:13:10;95931.25;;;-146.70;76.29
7474;BME280;3778;42.572;23.426;2023-01-30T04:15:36;95950.00;;;-146.70;76.85
7474;BME280;3778;42.572;23.426;2023-01-30T04:18:03;95881.22;;;-146.70;76.69
7474;BME280;3778;42.572;23.426;2023-01-30T04:20:30;95914.56;;;-146.70;76.83
7474;BME280;3778;42.572;23.426;2023-01-30T04:22:57;95891.63;;;-146.70;76.90
7474;BME280;3778;42.572;23.426;2023-01-30T04:25:23;95899.97;;;-146.70;77.08
7474;BME280;3778;42.572;23.426;2023-01-30T04:27:51;95916.66;;;-146.70;77.03
7474;BME280;3778;42.572;23.426;2023-01-30T04:30:18;95906.22;;;-146.70;76.80
7474;BME280;3778;42.572;23.426;2023-01-30T04:32:45;95899.97;;;-146.70;77.11
7474;BME280;3778;42.572;23.426;2023-01-30T04:35:12;95950.00;;;-146.70;77.34
7474;BME280;3778;42.572;23.426;2023-01-30T04:37:38;95899.97;;;-146.70;77.44
7474;BME280;3778;42.572;23.426;2023-01-30T04:40:06;95887.47;;;-146.70;77.38
7474;BME280;3778;42.572;23.426;2023-01-30T04:42:33;95879.13;;;-146.70;77.21
7474;BME280;3778;42.572;23.426;2023-01-30T04:45:01;95858.28;;;-146.70;77.35
7474;BME280;3778;42.572;23.426;2023-01-30T04:47:28;95897.91;;;-146.70;77.46
7474;BME280;3778;42.572;23.426;2023-01-30T04:49:54;95881.22;;;-146.70;77.49
7474;BME280;3778;42.572;23.426;2023-01-30T04:52:21;95899.97;;;-146.70;77.49
7474;BME280;3778;42.572;23.426;2023-01-30T04:54:48;95910.41;;;-146.70;77.83
7474;BME280;3778;42.572;23.426;2023-01-30T04:57:15;95954.19;;;-146.70;77.59
7474;BME280;3778;42.572;23.426;2023-01-30T04:59:41;95899.97;;;-146.70;77.72
7474;BME280;3778;42.572;23.426;2023-01-30T05:02:09;95870.78;;;-146.70;77.27
7474;BME280;3778;42.572;23.426;2023-01-30T05:04:36;95889.56;;;-146.70;77.51
7474;BME280;3778;42.572;23.426;2023-01-30T05:07:03;95933.34;;;-146.70;77.67
7474;BME280;3778;42.572;23.426;2023-01-30T05:09:29;95925.00;;;-146.70;77.55
7474;BME280;3778;42.572;23.426;2023-01-30T05:11:56;95925.00;;;-146.70;77.57
7474;BME280;3778;42.572;23.426;2023-01-30T05:14:23;95899.97;;;-146.70;77.77
7474;BME280;3778;42.572;23.426;2023-01-30T05:16:50;95893.72;;;-146.70;77.71
7474;BME280;3778;42.572;23.426;2023-01-30T05:19:18;95954.19;;;-146.70;77.70
7474;BME280;3778;42.572;23.426;2023-01-30T05:21:44;95887.47;;;-146.70;78.02
7474;BME280;3778;42.572;23.426;2023-01-30T05:24:11;95912.50;;;-146.70;78.09
7474;BME280;3778;42.572;23.426;2023-01-30T05:26:38;95874.97;;;-146.70;78.23
7474;BME280;3778;42.572;23.426;2023-01-30T05:29:04;95879.13;;;-146.70;78.33
7474;BME280;3778;42.572;23.426;2023-01-30T05:31:31;95895.81;;;-146.70;78.26
7474;BME280;3778;42.572;23.426;2023-01-30T05:33:59;95904.16;;;-146.70;78.18
7474;BME280;3778;42.572;23.426;2023-01-30T05:36:27;95897.91;;;-146.70;78.18
7474;BME280;3778;42.572;23.426;2023-01-30T05:38:54;95914.56;;;-146.70;78.53
7474;BME280;3778;42.572;23.426;2023-01-30T05:41:20;95906.22;;;-146.70;78.41
7474;BME280;3778;42.572;23.426;2023-01-30T05:43:48;95887.47;;;-146.70;78.70
7474;BME280;3778;42.572;23.426;2023-01-30T05:46:16;95870.78;;;-146.70;78.46
7474;BME280;3778;42.572;23.426;2023-01-30T05:48:43;95902.06;;;-146.70;78.77
7474;BME280;3778;42.572;23.426;2023-01-30T05:51:17;95877.03;;;-146.70;78.98
7474;BME280;3778;42.572;23.426;2023-01-30T05:53:45;95883.31;;;-146.70;78.72
7474;BME280;3778;42.572;23.426;2023-01-30T05:56:12;95927.06;;;-146.70;78.83
7474;BME280;3778;42.572;23.426;2023-01-30T05:58:40;95925.00;;;-146.70;78.87
7474;BME280;3778;42.572;23.426;2023-01-30T06:01:09;95877.03;;;-146.70;78.74
7474;BME280;3778;42.572;23.426;2023-01-30T06:03:36;95887.47;;;-146.70;78.78
7474;BME280;3778;42.572;23.426;2023-01-30T06:06:03;95908.31;;;-146.70;79.14
7474;BME280;3778;42.572;23.426;2023-01-30T06:08:31;95918.75;;;-146.70;79.05
7474;BME280;3778;42.572;23.426;2023-01-30T06:11:00;95931.25;;;-146.70;79.14
7474;BME280;3778;42.572;23.426;2023-01-30T06:13:27;95889.56;;;-146.70;79.42
7474;BME280;3778;42.572;23.426;2023-01-30T06:15:54;95908.31;;;-146.70;79.50
7474;BME280;3778;42.572;23.426;2023-01-30T06:18:21;95895.81;;;-146.70;79.45
7474;BME280;3778;42.572;23.426;2023-01-30T06:20:48;95893.72;;;-146.70;79.57
7474;BME280;3778;42.572;23.426;2023-01-30T06:23:14;95904.16;;;-146.70;79.68
7474;BME280;3778;42.572;23.426;2023-01-30T06:25:42;95933.34;;;-146.70;79.50
7474;BME280;3778;42.572;23.426;2023-01-30T06:28:10;95920.81;;;-146.70;79.60
7474;BME280;3778;42.572;23.426;2023-01-30T06:30:37;95889.56;;;-146.70;80.10
7474;BME280;3778;42.572;23.426;2023-01-30T06:33:04;95935.41;;;-146.70;80.04
7474;BME280;3778;42.572;23.426;2023-01-30T06:35:31;95910.41;;;-146.70;80.30
7474;BME280;3778;42.572;23.426;2023-01-30T06:37:58;95945.84;;;-146.70;80.44
7474;BME280;3778;42.572;23.426;2023-01-30T06:40:25;95912.50;;;-146.70;79.87
7474;BME280;3778;42.572;23.426;2023-01-30T06:42:52;95877.03;;;-146.70;79.93
7474;BME280;3778;42.572;23.426;2023-01-30T06:45:20;95879.13;;;-146.70;80.16
7474;BME280;3778;42.572;23.426;2023-01-30T06:47:48;95958.34;;;-146.70;79.98
7474;BME280;3778;42.572;23.426;2023-01-30T06:50:16;95950.00;;;-146.70;79.52
7474;BME280;3778;42.572;23.426;2023-01-30T06:52:44;95895.81;;;-146.70;79.54
7474;BME280;3778;42.572;23.426;2023-01-30T06:55:13;95881.22;;;-146.70;79.37
7474;BME280;3778;42.572;23.426;2023-01-30T06:57:40;95954.19;;;-146.70;79.74
7474;BME280;3778;42.572;23.426;2023-01-30T07:00:10;95920.81;;;-146.70;79.80
7474;BME280;3778;42.572;23.426;2023-01-30T07:02:38;95962.53;;;-146.70;79.81
7474;BME280;3778;42.572;23.426;2023-01-30T07:05:07;95979.19;;;-146.70;80.16
7474;BME280;3778;42.572;23.426;2023-01-30T07:07:34;95920.81;;;-146.70;80.40
7474;BME280;3778;42.572;23.426;2023-01-30T07:10:03;95870.78;;;-146.70;80.38
7474;BME280;3778;42.572;23.426;2023-01-30T07:12:30;95929.16;;;-146.70;80.23
7474;BME280;3778;42.572;23.426;2023-01-30T07:14:57;95889.56;;;-146.70;80.05
7474;BME280;3778;42.572;23.426;2023-01-30T07:17:23;95916.66;;;-146.70;79.96
7474;BME280;3778;42.572;23.426;2023-01-30T07:19:51;95947.94;;;-146.70;80.28
7474;BME280;3778;42.572;23.426;2023-01-30T07:22:18;95885.38;;;-146.70;80.19
7474;BME280;3778;42.572;23.426;2023-01-30T07:24:45;95920.81;;;-146.70;79.95
7474;BME280;3778;42.572;23.426;2023-01-30T07:27:12;95883.31;;;-146.70;79.94
7474;BME280;3778;42.572;23.426;2023-01-30T07:29:39;95933.34;;;-146.70;80.11
7474;BME280;3778;42.572;23.426;2023-01-30T07:32:08;95893.72;;;-146.70;80.32
7474;BME280;3778;42.572;23.426;2023-01-30T07:34:38;95920.81;;;-146.70;80.13
7474;BME280;3778;42.572;23.426;2023-01-30T07:37:07;95916.66;;;-146.70;80.38
7474;BME280;3778;42.572;23.426;2023-01-30T07:39:34;95889.56;;;-146.70;79.98
7474;BME280;3778;42.572;23.426;2023-01-30T07:42:01;95954.19;;;-146.70;80.08
7474;BME280;3778;42.572;23.426;2023-01-30T07:44:27;95885.38;;;-146.70;80.10
7474;BME280;3778;42.572;23.426;2023-01-30T07:46:54;95889.56;;;-146.70;79.73
7474;BME280;3778;42.572;23.426;2023-01-30T07:49:21;95887.47;;;-146.70;79.44
7474;BME280;3778;42.572;23.426;2023-01-30T07:51:48;95897.91;;;-146.70;79.61
7474;BME280;3778;42.572;23.426;2023-01-30T07:54:16;95941.66;;;-146.70;79.70
7474;BME280;3778;42.572;23.426;2023-01-30T07:56:43;95906.22;;;-146.70;79.29
7474;BME280;3778;42.572;23.426;2023-01-30T07:59:10;95895.81;;;-146.70;79.34
7474;BME280;3778;42.572;23.426;2023-01-30T08:01:37;95925.00;;;-146.70;79.24
7474;BME280;3778;42.572;23.426;2023-01-30T08:04:04;95891.63;;;-146.70;79.55
7474;BME280;3778;42.572;23.426;2023-01-30T08:06:31;95899.97;;;-146.70;79.54
7474;BME280;3778;42.572;23.426;2023-01-30T08:09:01;95895.81;;;-146.70;79.25
7474;BME280;3778;42.572;23.426;2023-01-30T08:11:29;95897.91;;;-146.70;78.94
7474;BME280;3778;42.572;23.426;2023-01-30T08:13:56;95877.03;;;-146.70;78.40
7474;BME280;3778;42.572;23.426;2023-01-30T08:16:22;95877.03;;;-146.70;78.70
7474;BME280;3778;42.572;23.426;2023-01-30T08:18:49;95874.97;;;-146.70;78.14
7474;BME280;3778;42.572;23.426;2023-01-30T08:21:16;95937.50;;;-146.70;77.54
7474;BME280;3778;42.572;23.426;2023-01-30T08:23:42;95893.72;;;-146.70;76.42
7474;BME280;3778;42.572;23.426;2023-01-30T08:26:09;95929.16;;;-146.70;76.15
7474;BME280;3778;42.572;23.426;2023-01-30T08:28:38;95912.50;;;-146.70;76.02
7474;BME280;3778;42.572;23.426;2023-01-30T08:31:08;95916.66;;;-146.70;76.04
7474;BME280;3778;42.572;23.426;2023-01-30T08:33:35;95904.16;;;-146.70;75.83
7474;BME280;3778;42.572;23.426;2023-01-30T08:36:02;95868.72;;;-146.70;75.99
7474;BME280;3778;42.572;23.426;2023-01-30T08:38:28;95879.13;;;-146.70;75.75
7474;BME280;3778;42.572;23.426;2023-01-30T08:40:55;95847.88;;;-146.70;75.30
7474;BME280;3778;42.572;23.426;2023-01-30T08:43:23;95854.13;;;-146.70;75.28
7474;BME280;3778;42.572;23.426;2023-01-30T08:45:53;95827.03;;;-146.70;74.97
7474;BME280;3778;42.572;23.426;2023-01-30T08:48:20;95854.13;;;-146.70;74.85
7474;BME280;3778;42.572;23.426;2023-01-30T08:50:49;95866.63;;;-146.70;74.51
7474;BME280;3778;42.572;23.426;2023-01-30T08:53:16;95889.56;;;-146.70;74.66
7474;BME280;3778;42.572;23.426;2023-01-30T08:55:43;95829.09;;;-146.70;74.01
7474;BME280;3778;42.572;23.426;2023-01-30T08:58:09;95862.47;;;-146.70;74.06
7474;BME280;3778;42.572;23.426;2023-01-30T09:00:36;95870.78;;;-146.70;73.39
7474;BME280;3778;42.572;23.426;2023-01-30T09:03:05;95906.22;;;-146.70;73.06
7474;BME280;3778;42.572;23.426;2023-01-30T09:05:32;95870.78;;;-146.70;72.92
7474;BME280;3778;42.572;23.426;2023-01-30T09:07:58;95862.47;;;-146.70;73.15
7474;BME280;3778;42.572;23.426;2023-01-30T09:10:25;95841.59;;;-146.70;72.62
7474;BME280;3778;42.572;23.426;2023-01-30T09:12:52;95866.63;;;-146.70;71.77
7474;BME280;3778;42.572;23.426;2023-01-30T09:15:18;95870.78;;;-146.70;71.33
7474;BME280;3778;42.572;23.426;2023-01-30T09:17:45;95885.38;;;-146.70;72.08
7474;BME280;3778;42.572;23.426;2023-01-30T09:20:13;95885.38;;;-146.70;71.61
7474;BME280;3778;42.572;23.426;2023-01-30T09:22:40;95866.63;;;-146.70;71.21
7474;BME280;3778;42.572;23.426;2023-01-30T09:25:07;95877.03;;;-146.70;70.26
7474;BME280;3778;42.572;23.426;2023-01-30T09:27:34;95816.59;;;-146.70;70.41
7474;BME280;3778;42.572;23.426;2023-01-30T09:30:01;95820.75;;;-146.70;70.06
7474;BME280;3778;42.572;23.426;2023-01-30T09:32:28;95895.81;;;-146.70;70.41
7474;BME280;3778;42.572;23.426;2023-01-30T09:34:54;95833.28;;;-146.70;70.26
7474;BME280;3778;42.572;23.426;2023-01-30T09:37:22;95835.34;;;-146.70;69.52
7474;BME280;3778;42.572;23.426;2023-01-30T09:39:49;95833.28;;;-146.70;69.48
7474;BME280;3778;42.572;23.426;2023-01-30T09:42:49;95868.72;;;-146.70;68.77
7474;BME280;3778;42.572;23.426;2023-01-30T09:45:47;95841.59;;;-146.70;69.73
7474;BME280;3778;42.572;23.426;2023-01-30T09:48:21;95789.50;;;-146.70;68.44
7474;BME280;3778;42.572;23.426;2023-01-30T09:54:13;95833.28;;;-146.70;68.36
7474;BME280;3778;42.572;23.426;2023-01-30T09:56:40;95862.47;;;-146.70;67.98
7474;BME280;3778;42.572;23.426;2023-01-30T09:59:17;95720.72;;;-146.70;67.76
7474;BME280;3778;42.572;23.426;2023-01-30T10:01:53;95847.88;;;-146.70;68.09
7474;BME280;3778;42.572;23.426;2023-01-30T10:04:28;95795.75;;;-146.70;68.39
7474;BME280;3778;42.572;23.426;2023-01-30T10:07:03;95845.78;;;-146.70;68.21
7474;BME280;3778;42.572;23.426;2023-01-30T10:09:41;95797.84;;;-146.70;69.32
7474;BME280;3778;42.572;23.426;2023-01-30T10:12:22;95795.75;;;-146.70;69.38
7474;BME280;3778;42.572;23.426;2023-01-30T10:15:02;95818.69;;;-146.70;69.83
7474;BME280;3778;42.572;23.426;2023-01-30T10:17:47;95866.63;;;-146.70;70.07
7474;BME280;3778;42.572;23.426;2023-01-30T10:20:28;95814.50;;;-146.70;70.56
7474;BME280;3778;42.572;23.426;2023-01-30T10:23:19;95841.59;;;-146.70;69.97
7474;BME280;3778;42.572;23.426;2023-01-30T10:25:52;95822.84;;;-146.70;70.50
7474;BME280;3778;42.572;23.426;2023-01-30T10:28:23;95816.59;;;-146.70;70.49
7474;BME280;3778;42.572;23.426;2023-01-30T10:30:59;95837.44;;;-146.70;70.76
7474;BME280;3778;42.572;23.426;2023-01-30T10:33:30;95841.59;;;-146.70;70.55
7474;BME280;3778;42.572;23.426;2023-01-30T10:36:04;95866.63;;;-146.70;71.41
7474;BME280;3778;42.572;23.426;2023-01-30T10:38:38;95872.88;;;-146.70;71.66
7474;BME280;3778;42.572;23.426;2023-01-30T10:41:14;95822.84;;;-146.70;72.76
7474;BME280;3778;42.572;23.426;2023-01-30T10:43:46;95849.94;;;-146.70;72.69
7474;BME280;3778;42.572;23.426;2023-01-30T10:46:27;95829.09;;;-146.70;73.40
7474;BME280;3778;42.572;23.426;2023-01-30T10:48:59;95979.19;;;-146.70;73.47
7474;BME280;3778;42.572;23.426;2023-01-30T10:51:36;95895.81;;;-146.70;73.88
7474;BME280;3778;42.572;23.426;2023-01-30T10:54:09;95856.19;;;-146.70;74.36
7474;BME280;3778;42.572;23.426;2023-01-30T10:56:44;95899.97;;;-146.70;74.15
7474;BME280;3778;42.572;23.426;2023-01-30T10:59:22;95866.63;;;-146.70;74.41
7474;BME280;3778;42.572;23.426;2023-01-30T11:01:56;95824.94;;;-146.70;74.71
7474;BME280;3778;42.572;23.426;2023-01-30T11:04:29;95889.56;;;-146.70;74.56
7474;BME280;3778;42.572;23.426;2023-01-30T11:06:57;95881.22;;;-146.70;74.46
7474;BME280;3778;42.572;23.426;2023-01-30T11:09:37;95887.47;;;-146.70;74.69
7474;BME280;3778;42.572;23.426;2023-01-30T11:12:05;95897.91;;;-146.70;74.83
7474;BME280;3778;42.572;23.426;2023-01-30T11:14:51;95872.88;;;-146.70;74.41
7474;BME280;3778;42.572;23.426;2023-01-30T11:17:18;95912.50;;;-146.70;74.84
7474;BME280;3778;42.572;23.426;2023-01-30T11:19:53;95847.88;;;-146.70;74.08
7474;BME280;3778;42.572;23.426;2023-01-30T11:22:23;95862.47;;;-146.70;74.56
7474;BME280;3778;42.572;23.426;2023-01-30T11:24:59;95852.03;;;-146.70;73.92
7474;BME280;3778;42.572;23.426;2023-01-30T11:27:29;95872.88;;;-146.70;73.53
7474;BME280;3778;42.572;23.426;2023-01-30T11:32:40;95881.22;;;-146.70;73.41
7474;BME280;3778;42.572;23.426;2023-01-30T11:35:21;95895.81;;;-146.70;73.33
7474;BME280;3778;42.572;23.426;2023-01-30T11:37:49;95862.47;;;-146.70;72.90
7474;BME280;3778;42.572;23.426;2023-01-30T11:40:27;95918.75;;;-146.70;72.83
7474;BME280;3778;42.572;23.426;2023-01-30T11:43:02;95904.16;;;-146.70;72.84
7474;BME280;3778;42.572;23.426;2023-01-30T11:45:34;95887.47;;;-146.70;72.80
7474;BME280;3778;42.572;23.426;2023-01-30T11:48:05;95839.53;;;-146.70;72.76
7474;BME280;3778;42.572;23.426;2023-01-30T11:50:38;95877.03;;;-146.70;72.33
7474;BME280;3778;42.572;23.426;2023-01-30T11:53:15;95827.03;;;-146.70;72.21
7474;BME280;3778;42.572;23.426;2023-01-30T11:55:43;95852.03;;;-146.70;72.67
7474;BME280;3778;42.572;23.426;2023-01-30T11:58:13;95833.28;;;-146.70;71.80
7474;BME280;3778;42.572;23.426;2023-01-30T12:00:42;95833.28;;;-146.70;71.80
7474;BME280;3778;42.572;23.426;2023-01-30T12:03:14;95889.56;;;-146.70;70.82
7474;BME280;3778;42.572;23.426;2023-01-30T12:05:44;95810.34;;;-146.70;71.01
7474;BME280;3778;42.572;23.426;2023-01-30T12:08:20;95820.75;;;-146.70;71.07
7474;BME280;3778;42.572;23.426;2023-01-30T12:10:49;95824.94;;;-146.70;70.77
7474;BME280;3778;42.572;23.426;2023-01-30T12:13:24;95891.63;;;-146.70;70.66
7474;BME280;3778;42.572;23.426;2023-01-30T12:16:02;95899.97;;;-146.70;70.89
7474;BME280;3778;42.572;23.426;2023-01-30T12:18:33;95829.09;;;-146.70;70.29
7474;BME280;3778;42.572;23.426;2023-01-30T12:21:10;95829.09;;;-146.70;70.29
7474;BME280;3778;42.572;23.426;2023-01-30T12:23:43;95806.16;;;-146.70;69.60
7474;BME280;3778;42.572;23.426;2023-01-30T12:26:14;95827.03;;;-146.70;69.83
7474;BME280;3778;42.572;23.426;2023-01-30T12:28:48;95812.44;;;-146.70;69.82
7474;BME280;3778;42.572;23.426;2023-01-30T12:31:21;95841.59;;;-146.70;69.57
7474;BME280;3778;42.572;23.426;2023-01-30T12:33:50;95847.88;;;-146.70;69.95
7474;BME280;3778;42.572;23.426;2023-01-30T12:36:26;95889.56;;;-146.70;69.43
7474;BME280;3778;42.572;23.426;2023-01-30T12:39:05;95799.91;;;-146.70;70.22
7474;BME280;3778;42.572;23.426;2023-01-30T12:41:52;95866.63;;;-146.70;69.77
7474;BME280;3778;42.572;23.426;2023-01-30T12:44:30;95858.28;;;-146.70;69.62
7474;BME280;3778;42.572;23.426;2023-01-30T12:47:21;95849.94;;;-146.70;70.21
7474;BME280;3778;42.572;23.426;2023-01-30T12:50:03;95849.94;;;-146.70;70.01
7474;BME280;3778;42.572;23.426;2023-01-30T12:52:48;95837.44;;;-146.70;69.65
7474;BME280;3778;42.572;23.426;2023-01-30T12:55:26;95835.34;;;-146.70;69.39
7474;BME280;3778;42.572;23.426;2023-01-30T12:58:00;95856.19;;;-146.70;68.95
7474;BME280;3778;42.572;23.426;2023-01-30T13:00:43;95768.66;;;-146.70;68.83
7474;BME280;3778;42.572;23.426;2023-01-30T13:03:22;95829.09;;;-146.70;68.42
7474;BME280;3778;42.572;23.426;2023-01-30T13:06:01;95810.34;;;-146.70;69.08
7474;BME280;3778;42.572;23.426;2023-01-30T13:08:41;95883.31;;;-146.70;69.00
7474;BME280;3778;42.572;23.426;2023-01-30T13:11:26;95814.50;;;-146.70;68.60
7474;BME280;3778;42.572;23.426;2023-01-30T13:14:01;95839.53;;;-146.70;68.51
7474;BME280;3778;42.572;23.426;2023-01-30T13:16:39;95774.91;;;-146.70;68.59